Terminal Aerodrome Forecast
Issued by NWS

Home | Current Version | Previous Version | Text Only | Print | Product List | Glossary On
Versions: 1 2 3 4 5 6 7 8 9 10 11 12 13 14 15 16 17
000
FTUS44 KLIX 111700
TAFMCB
TAF
KMCB 111738Z 1118/1218 36006KT P6SM SCT035 SCT050
     FM111930 VRB06KT P6SM VCTS SCT030CB SCT250
      TEMPO 1121/1201 VRB30KT 2SM +TSRA BKN025CB
     FM120200 VRB03KT P6SM SCT060 BKN250=

USA.gov is the U.S. government's official web portal to all federal, state and local government web resources and services.